Time;durP1;ratioP1;P1;durP2;ratioP2;P2;SDS_P1;SDS_P2;PMS_P1;PMS_P2;Temp;Humidity;BMP_temperature;BMP_pressure;BME280_temperature;BME280_humidity;BME280_pressure;Samples;Min_cycle;Max_cycle;Signal;HPM_P1;HPM_P2
2022/05/23 00:01:54;;;;;;;0.85;0.70;;;;;;;;;;5030595;28;20416;-65
2022/05/23 00:04:19;;;;;;;1.30;1.00;;;;;;;;;;5032454;28;20338;-65
2022/05/23 00:06:45;;;;;;;1.55;1.02;;;;;;;;;;5030838;28;20394;-65
2022/05/23 00:09:11;;;;;;;1.15;0.90;;;;;;;;;;5030320;28;20355;-65
2022/05/23 00:11:36;;;;;;;1.20;0.90;;;;;;;;;;5030621;28;20032;-65
2022/05/23 00:14:01;;;;;;;2.03;0.90;;;;;;;;;;5031396;28;20421;-64
2022/05/23 00:16:33;;;;;;;1.08;0.77;;;;;;;;;;5030364;28;20451;-65
2022/05/23 00:18:59;;;;;;;2.60;1.05;;;;;;;;;;5012831;28;20024;-65
2022/05/23 00:21:24;;;;;;;1.52;0.98;;;;;;;;;;5030456;28;20580;-64
2022/05/23 00:23:49;;;;;;;0.98;0.70;;;;;;;;;;5030552;28;20060;-64
2022/05/23 00:26:17;;;;;;;1.00;0.80;;;;;;;;;;5030513;28;20032;-65
2022/05/23 00:28:42;;;;;;;1.77;0.98;;;;;;;;;;5012129;28;20339;-64
2022/05/23 00:31:08;;;;;;;1.52;1.00;;;;;;;;;;5030625;28;20387;-64
2022/05/23 00:36:18;;;;;;;2.92;1.40;;;;;;;;;;5015751;28;20104;-63
2022/05/23 00:38:43;;;;;;;1.95;1.13;;;;;;;;;;5030587;28;20455;-65
2022/05/23 00:44:05;;;;;;;1.02;0.90;;;;;;;;;;5016082;28;20763;-64
2022/05/23 00:46:31;;;;;;;1.90;1.13;;;;;;;;;;5030074;28;20438;-66
2022/05/23 00:49:03;;;;;;;1.75;0.80;;;;;;;;;;5029675;28;20454;-64
2022/05/23 00:51:30;;;;;;;2.20;1.10;;;;;;;;;;5030399;28;20461;-64
2022/05/23 00:53:57;;;;;;;2.90;1.00;;;;;;;;;;5029774;28;20506;-65
2022/05/23 00:56:25;;;;;;;2.92;1.38;;;;;;;;;;5011295;28;20439;-65
2022/05/23 00:58:55;;;;;;;3.13;1.67;;;;;;;;;;5011811;28;20506;-65
2022/05/23 01:01:23;;;;;;;2.10;1.13;;;;;;;;;;5027000;28;20114;-64
2022/05/23 01:03:48;;;;;;;1.17;1.00;;;;;;;;;;5011455;28;20407;-65
2022/05/23 01:06:14;;;;;;;1.15;0.93;;;;;;;;;;5030202;28;20497;-65
2022/05/23 01:08:40;;;;;;;3.13;1.40;;;;;;;;;;5030003;28;20047;-64
2022/05/23 01:11:06;;;;;;;3.53;1.40;;;;;;;;;;4991273;28;20041;-65
2022/05/23 01:13:32;;;;;;;2.58;1.40;;;;;;;;;;4989463;28;20056;-64
2022/05/23 01:15:57;;;;;;;2.88;1.60;;;;;;;;;;4990541;28;20412;-64
2022/05/23 01:18:23;;;;;;;2.53;1.25;;;;;;;;;;4989931;28;20425;-65
2022/05/23 01:21:00;;;;;;;1.83;1.20;;;;;;;;;;4989634;28;20387;-65
2022/05/23 01:23:26;;;;;;;2.72;1.55;;;;;;;;;;4989649;28;20029;-64
2022/05/23 01:25:51;;;;;;;2.60;1.83;;;;;;;;;;4989615;28;20405;-64
2022/05/23 01:28:17;;;;;;;2.38;1.35;;;;;;;;;;4989456;28;20100;-65
2022/05/23 01:30:43;;;;;;;2.17;1.05;;;;;;;;;;4989317;28;20445;-64
2022/05/23 01:33:10;;;;;;;1.70;1.13;;;;;;;;;;5004275;28;20345;-64
2022/05/23 01:35:36;;;;;;;1.75;1.23;;;;;;;;;;4989117;28;20474;-65
2022/05/23 01:38:02;;;;;;;3.30;1.83;;;;;;;;;;4990768;28;20494;-65
2022/05/23 01:40:28;;;;;;;1.83;1.20;;;;;;;;;;4989727;28;20464;-65
2022/05/23 01:42:53;;;;;;;2.08;1.27;;;;;;;;;;4989298;28;20464;-65
2022/05/23 01:45:26;;;;;;;3.60;1.90;;;;;;;;;;4989155;28;20408;-65
2022/05/23 01:47:53;;;;;;;2.53;1.60;;;;;;;;;;4989053;28;20316;-64
2022/05/23 01:50:19;;;;;;;3.42;1.52;;;;;;;;;;4990110;28;20411;-64
2022/05/23 01:52:45;;;;;;;2.42;1.70;;;;;;;;;;4990903;28;20325;-63
2022/05/23 01:55:10;;;;;;;3.63;1.30;;;;;;;;;;4989079;28;20427;-64
2022/05/23 01:57:35;;;;;;;3.80;1.42;;;;;;;;;;4989023;28;20410;-66
2022/05/23 02:02:47;;;;;;;1.92;1.40;;;;;;;;;;4990643;28;20399;-65
2022/05/23 02:05:15;;;;;;;1.90;1.47;;;;;;;;;;4988754;28;20352;-65
2022/05/23 02:07:41;;;;;;;2.60;1.35;;;;;;;;;;4990522;28;20690;-65
2022/05/23 02:10:07;;;;;;;2.92;1.50;;;;;;;;;;5004954;28;20485;-65
2022/05/23 02:12:32;;;;;;;2.78;1.50;;;;;;;;;;5028782;28;20427;-64
2022/05/23 02:14:58;;;;;;;2.55;1.25;;;;;;;;;;5028612;28;20403;-63
2022/05/23 02:17:23;;;;;;;3.60;1.60;;;;;;;;;;5028538;28;20116;-64
2022/05/23 02:19:48;;;;;;;3.30;1.40;;;;;;;;;;5031762;28;20158;-65
2022/05/23 02:22:14;;;;;;;2.50;1.60;;;;;;;;;;5033227;28;20028;-65
2022/05/23 02:24:39;;;;;;;2.85;1.55;;;;;;;;;;5033166;28;20324;-65
2022/05/23 02:27:05;;;;;;;2.92;1.55;;;;;;;;;;5032769;28;20318;-64
2022/05/23 02:29:30;;;;;;;2.25;1.63;;;;;;;;;;5032641;28;20427;-64
2022/05/23 02:31:56;;;;;;;2.10;1.40;;;;;;;;;;5032128;28;20526;-64
2022/05/23 02:34:21;;;;;;;4.47;1.67;;;;;;;;;;5032308;28;20514;-64
2022/05/23 02:36:47;;;;;;;2.53;1.48;;;;;;;;;;5032115;28;20530;-65
2022/05/23 02:39:13;;;;;;;2.70;1.42;;;;;;;;;;5032422;28;20844;-65
2022/05/23 02:41:38;;;;;;;3.35;1.42;;;;;;;;;;5031945;28;20461;-64
2022/05/23 02:44:05;;;;;;;1.90;1.17;;;;;;;;;;5032464;28;20437;-65
2022/05/23 02:46:30;;;;;;;1.67;1.30;;;;;;;;;;5032993;28;20024;-64
2022/05/23 02:48:55;;;;;;;3.00;1.20;;;;;;;;;;5032352;28;20442;-64
2022/05/23 02:51:21;;;;;;;3.33;1.50;;;;;;;;;;5032390;28;20106;-65
2022/05/23 02:53:47;;;;;;;2.42;1.55;;;;;;;;;;5029662;28;20419;-65
2022/05/23 02:56:12;;;;;;;2.15;1.60;;;;;;;;;;5032390;28;20388;-64
2022/05/23 02:58:37;;;;;;;4.63;2.10;;;;;;;;;;5032117;28;20399;-64
2022/05/23 03:01:03;;;;;;;2.53;1.48;;;;;;;;;;5032594;28;20421;-64
2022/05/23 03:03:29;;;;;;;2.65;1.40;;;;;;;;;;5031929;28;20415;-65
2022/05/23 03:05:54;;;;;;;3.10;1.98;;;;;;;;;;5032252;28;20452;-65
2022/05/23 03:08:24;;;;;;;3.25;1.60;;;;;;;;;;5032007;28;20340;-65
2022/05/23 03:10:51;;;;;;;2.50;1.70;;;;;;;;;;5031117;28;20454;-64
2022/05/23 03:13:17;;;;;;;3.58;1.45;;;;;;;;;;5031687;28;20432;-65
2022/05/23 03:15:42;;;;;;;1.85;1.17;;;;;;;;;;5031851;28;20635;-64
2022/05/23 03:18:08;;;;;;;2.75;1.70;;;;;;;;;;5031764;28;20376;-65
2022/05/23 03:20:34;;;;;;;3.47;1.70;;;;;;;;;;5032628;28;20486;-65
2022/05/23 03:28:31;;;;;;;2.28;1.20;;;;;;;;;;5016892;28;20396;-63
2022/05/23 03:30:56;;;;;;;2.80;1.60;;;;;;;;;;5031641;28;20334;-64
2022/05/23 03:33:22;;;;;;;2.85;1.63;;;;;;;;;;5031882;28;20348;-65
2022/05/23 03:35:48;;;;;;;3.60;1.67;;;;;;;;;;5031084;28;20078;-64
2022/05/23 03:38:13;;;;;;;2.08;1.77;;;;;;;;;;5031798;28;20470;-63
2022/05/23 03:40:40;;;;;;;2.20;1.65;;;;;;;;;;5031714;28;20111;-65
2022/05/23 03:43:06;;;;;;;2.78;1.58;;;;;;;;;;5032940;28;20426;-64
2022/05/23 03:45:33;;;;;;;2.90;1.65;;;;;;;;;;5013808;28;20323;-64
2022/05/23 03:47:58;;;;;;;3.17;1.80;;;;;;;;;;5030784;28;20434;-65
2022/05/23 03:50:26;;;;;;;4.13;1.50;;;;;;;;;;5031935;28;20131;-64
2022/05/23 03:52:52;;;;;;;2.13;1.40;;;;;;;;;;5013395;28;20370;-65
2022/05/23 03:55:18;;;;;;;5.15;1.52;;;;;;;;;;5031930;28;20332;-64
2022/05/23 03:57:43;;;;;;;3.97;1.80;;;;;;;;;;5031131;28;20331;-64
2022/05/23 04:00:12;;;;;;;2.08;1.50;;;;;;;;;;5031043;28;20434;-65
2022/05/23 04:02:37;;;;;;;2.70;1.65;;;;;;;;;;5030640;28;20496;-64
2022/05/23 04:05:04;;;;;;;3.25;1.58;;;;;;;;;;5031176;28;20320;-63
2022/05/23 04:07:30;;;;;;;4.40;1.65;;;;;;;;;;5031066;28;20577;-64
2022/05/23 04:09:55;;;;;;;3.03;1.48;;;;;;;;;;5030460;28;20439;-64
2022/05/23 04:12:21;;;;;;;2.97;1.70;;;;;;;;;;5030957;28;20418;-65
2022/05/23 04:14:46;;;;;;;3.45;1.80;;;;;;;;;;5030686;28;20509;-64
2022/05/23 04:17:12;;;;;;;2.28;1.38;;;;;;;;;;5031305;28;20454;-64
2022/05/23 04:19:37;;;;;;;3.47;1.65;;;;;;;;;;5030881;28;20405;-65
2022/05/23 04:22:03;;;;;;;3.35;1.67;;;;;;;;;;5030385;28;20347;-64
2022/05/23 04:24:28;;;;;;;3.60;1.50;;;;;;;;;;5030208;28;20328;-64
2022/05/23 04:26:55;;;;;;;2.33;1.42;;;;;;;;;;5030415;28;20462;-64
2022/05/23 04:29:22;;;;;;;2.53;1.55;;;;;;;;;;5030213;28;20032;-64
2022/05/23 04:31:47;;;;;;;2.85;1.52;;;;;;;;;;5029735;28;20355;-65
2022/05/23 04:36:56;;;;;;;3.00;1.90;;;;;;;;;;5031187;28;20473;-64
2022/05/23 04:39:22;;;;;;;3.15;1.70;;;;;;;;;;5031753;28;20419;-64
2022/05/23 04:41:47;;;;;;;3.28;1.42;;;;;;;;;;5029130;28;20428;-65
2022/05/23 04:44:12;;;;;;;3.95;1.65;;;;;;;;;;5029865;28;20048;-65
2022/05/23 04:49:41;;;;;;;3.78;1.77;;;;;;;;;;5030156;28;20430;-65
2022/05/23 04:49:42;;;;;;;2.50;1.60;;;;;;;;;;5029952;28;20036;-65
2022/05/23 04:52:22;;;;;;;5.07;1.60;;;;;;;;;;5099504;23;20477;-64
2022/05/23 04:54:48;;;;;;;2.08;1.67;;;;;;;;;;4976217;28;20551;-64
2022/05/23 04:57:14;;;;;;;2.95;1.70;;;;;;;;;;4990181;28;20521;-64
2022/05/23 04:59:39;;;;;;;2.72;1.45;;;;;;;;;;4990358;28;20427;-63
2022/05/23 05:02:05;;;;;;;3.42;1.95;;;;;;;;;;4990421;28;20051;-64
2022/05/23 05:04:30;;;;;;;2.53;1.65;;;;;;;;;;4990026;28;20079;-64
2022/05/23 05:06:56;;;;;;;4.10;1.80;;;;;;;;;;4990060;28;20423;-65
2022/05/23 05:09:21;;;;;;;2.30;1.42;;;;;;;;;;4989762;28;20518;-65
2022/05/23 05:11:47;;;;;;;3.40;1.58;;;;;;;;;;4990316;28;20442;-64
2022/05/23 05:14:12;;;;;;;3.42;1.50;;;;;;;;;;4989674;28;20502;-64
2022/05/23 05:16:37;;;;;;;2.45;1.50;;;;;;;;;;4971604;28;20320;-64
2022/05/23 05:19:03;;;;;;;2.00;1.30;;;;;;;;;;4989557;28;20488;-65
2022/05/23 05:21:29;;;;;;;2.53;1.33;;;;;;;;;;4991268;28;20473;-63
2022/05/23 05:23:54;;;;;;;4.40;2.00;;;;;;;;;;4989657;28;20431;-65
2022/05/23 05:26:20;;;;;;;3.20;1.88;;;;;;;;;;4990613;28;20542;-64
2022/05/23 05:28:45;;;;;;;2.17;1.63;;;;;;;;;;4989425;28;20045;-64
2022/05/23 05:31:15;;;;;;;2.63;1.50;;;;;;;;;;4989325;28;20533;-64
2022/05/23 05:33:45;;;;;;;2.47;1.40;;;;;;;;;;4971386;28;20123;-64
2022/05/23 05:36:13;;;;;;;2.58;1.63;;;;;;;;;;4989455;28;20028;-64
2022/05/23 05:38:52;;;;;;;2.35;1.33;;;;;;;;;;4971490;28;20411;-64
2022/05/23 05:41:22;;;;;;;2.97;1.35;;;;;;;;;;4989534;28;20428;-65
2022/05/23 05:43:56;;;;;;;3.47;1.73;;;;;;;;;;4990686;28;20377;-64
2022/05/23 05:46:25;;;;;;;3.17;1.33;;;;;;;;;;4971638;28;20025;-64
2022/05/23 05:48:51;;;;;;;;;;;;;;;;;;4989944;28;20308;-64
2022/05/23 05:51:18;;;;;;;2.87;1.83;;;;;;;;;;4989442;28;19935;-64
2022/05/23 05:53:44;;;;;;;3.65;1.55;;;;;;;;;;4988692;28;20551;-64
2022/05/23 05:56:09;;;;;;;2.30;1.50;;;;;;;;;;4989284;28;20398;-64
2022/05/23 05:58:35;;;;;;;2.20;1.30;;;;;;;;;;4971737;28;20335;-64
2022/05/23 06:01:01;;;;;;;1.17;1.08;;;;;;;;;;4990380;28;20033;-64
2022/05/23 06:03:26;;;;;;;4.97;1.50;;;;;;;;;;4989220;28;20457;-64
2022/05/23 06:11:26;;;;;;;3.05;1.70;;;;;;;;;;4990031;28;20538;-65
2022/05/23 06:13:56;;;;;;;2.58;1.45;;;;;;;;;;4989568;28;20443;-64
2022/05/23 06:16:23;;;;;;;2.80;1.45;;;;;;;;;;4989740;28;20113;-64
2022/05/23 06:18:49;;;;;;;2.00;1.23;;;;;;;;;;4989959;28;20326;-65
2022/05/23 06:21:14;;;;;;;2.47;1.40;;;;;;;;;;4989074;28;20335;-64
2022/05/23 06:23:41;;;;;;;3.95;1.70;;;;;;;;;;4988792;28;20413;-63
2022/05/23 06:26:06;;;;;;;4.40;1.52;;;;;;;;;;4989189;28;20363;-64
2022/05/23 06:28:31;;;;;;;2.67;1.50;;;;;;;;;;4988604;28;20390;-65
2022/05/23 06:30:57;;;;;;;3.17;1.45;;;;;;;;;;4990133;28;20037;-64
2022/05/23 06:33:23;;;;;;;2.78;1.50;;;;;;;;;;4988707;28;20446;-65
2022/05/23 06:35:49;;;;;;;1.85;1.05;;;;;;;;;;4988879;28;20432;-65
2022/05/23 06:38:15;;;;;;;1.77;1.27;;;;;;;;;;4989141;28;20346;-64
2022/05/23 06:40:40;;;;;;;2.38;1.35;;;;;;;;;;4988709;28;20435;-64
2022/05/23 06:43:06;;;;;;;2.47;1.33;;;;;;;;;;4988884;28;20521;-64
2022/05/23 06:45:31;;;;;;;1.83;1.00;;;;;;;;;;4988997;28;20483;-64
2022/05/23 06:47:57;;;;;;;3.25;1.50;;;;;;;;;;4988985;28;20640;-65
2022/05/23 06:50:22;;;;;;;1.65;1.13;;;;;;;;;;4988561;28;20561;-65
2022/05/23 06:52:48;;;;;;;2.28;1.27;;;;;;;;;;4990555;28;20359;-63
2022/05/23 06:55:13;;;;;;;1.52;1.30;;;;;;;;;;4988633;28;20374;-63
2022/05/23 06:57:38;;;;;;;2.08;1.20;;;;;;;;;;4989054;28;20411;-64
2022/05/23 07:00:05;;;;;;;1.38;1.27;;;;;;;;;;4990271;28;20364;-64
2022/05/23 07:02:30;;;;;;;3.15;1.20;;;;;;;;;;4988740;28;20343;-65
2022/05/23 07:13:08;;;;;;;1.67;1.20;;;;;;;;;;4992542;28;20343;-63
2022/05/23 07:15:37;;;;;;;2.28;1.40;;;;;;;;;;4991774;28;20029;-64
2022/05/23 07:18:03;;;;;;;2.35;1.30;;;;;;;;;;4993245;28;20446;-66
2022/05/23 07:20:28;;;;;;;1.55;1.38;;;;;;;;;;4991687;28;20435;-65
2022/05/23 07:22:54;;;;;;;3.42;1.15;;;;;;;;;;4993000;28;20500;-64
2022/05/23 07:25:19;;;;;;;1.60;1.23;;;;;;;;;;4992674;28;20439;-64
2022/05/23 07:27:44;;;;;;;1.38;1.05;;;;;;;;;;4974108;28;20490;-64
2022/05/23 07:30:11;;;;;;;3.03;1.45;;;;;;;;;;4991824;28;20456;-64
2022/05/23 07:32:36;;;;;;;1.83;1.20;;;;;;;;;;4992022;28;20087;-64
2022/05/23 07:35:01;;;;;;;2.15;1.30;;;;;;;;;;4993605;28;20471;-63
2022/05/23 07:37:28;;;;;;;1.65;0.95;;;;;;;;;;4992483;28;20470;-64
2022/05/23 07:39:56;;;;;;;1.92;0.95;;;;;;;;;;4991492;28;20492;-64
2022/05/23 07:42:21;;;;;;;2.42;1.25;;;;;;;;;;4991953;28;20382;-64
2022/05/23 07:44:47;;;;;;;1.40;1.05;;;;;;;;;;4991325;28;20382;-63
2022/05/23 07:47:12;;;;;;;2.03;1.35;;;;;;;;;;4991975;28;20468;-64
2022/05/23 07:49:37;;;;;;;2.35;1.40;;;;;;;;;;4991377;28;20419;-63
2022/05/23 07:52:03;;;;;;;1.58;1.13;;;;;;;;;;4991534;28;20514;-64
2022/05/23 08:02:41;;;;;;;2.40;1.40;;;;;;;;;;4991268;28;20385;-65
2022/05/23 08:05:08;;;;;;;2.85;1.05;;;;;;;;;;4991069;28;20374;-64
2022/05/23 08:07:33;;;;;;;1.75;1.05;;;;;;;;;;4992461;28;20098;-64
2022/05/23 08:10:00;;;;;;;1.35;1.15;;;;;;;;;;4990958;28;20435;-64
2022/05/23 08:12:27;;;;;;;1.20;1.10;;;;;;;;;;4991067;28;20492;-64
2022/05/23 08:14:52;;;;;;;1.92;1.10;;;;;;;;;;4973035;28;20431;-64
2022/05/23 08:17:18;;;;;;;1.98;0.95;;;;;;;;;;4992475;28;20342;-64
2022/05/23 08:19:43;;;;;;;2.05;0.98;;;;;;;;;;4992508;28;20381;-64
2022/05/23 08:22:09;;;;;;;1.40;1.00;;;;;;;;;;4990706;28;20393;-64
2022/05/23 08:24:35;;;;;;;1.75;1.10;;;;;;;;;;4973320;28;20351;-63
2022/05/23 08:27:00;;;;;;;1.73;1.15;;;;;;;;;;4991392;28;20052;-64
2022/05/23 08:29:26;;;;;;;1.25;0.90;;;;;;;;;;4991820;28;20387;-63
2022/05/23 08:31:52;;;;;;;1.85;0.98;;;;;;;;;;4990624;28;20324;-64
2022/05/23 08:34:17;;;;;;;1.10;0.70;;;;;;;;;;4973989;28;20047;-65
2022/05/23 08:36:42;;;;;;;1.67;1.00;;;;;;;;;;4990432;28;20063;-63
2022/05/23 08:39:08;;;;;;;1.33;0.90;;;;;;;;;;4991508;28;20446;-65
2022/05/23 08:41:36;;;;;;;1.73;0.90;;;;;;;;;;4990990;28;20498;-64
2022/05/23 08:44:07;;;;;;;1.30;0.87;;;;;;;;;;4992099;28;20478;-64
2022/05/23 08:46:51;;;;;;;1.25;0.85;;;;;;;;;;4990340;28;20697;-63
2022/05/23 08:49:45;;;;;;;1.00;0.80;;;;;;;;;;4990354;28;20471;-64
2022/05/23 08:52:22;;;;;;;0.80;0.70;;;;;;;;;;4989860;28;20466;-64
2022/05/23 08:54:53;;;;;;;1.00;0.80;;;;;;;;;;4985175;28;20395;-65
2022/05/23 08:57:28;;;;;;;1.80;0.93;;;;;;;;;;4970493;28;20383;-64
2022/05/23 08:59:55;;;;;;;1.25;1.00;;;;;;;;;;4969216;28;20415;-65
2022/05/23 09:02:55;;;;;;;1.15;0.80;;;;;;;;;;4970687;28;20048;-64
2022/05/23 09:05:23;;;;;;;1.45;0.98;;;;;;;;;;4970578;28;20259;-63
2022/05/23 09:07:54;;;;;;;2.35;0.85;;;;;;;;;;4970450;28;20431;-65
2022/05/23 09:10:55;;;;;;;1.48;0.65;;;;;;;;;;4971637;28;20505;-64
2022/05/23 09:13:22;;;;;;;1.13;0.70;;;;;;;;;;4968798;28;20503;-64
2022/05/23 09:15:52;;;;;;;1.17;0.70;;;;;;;;;;4969858;28;20379;-65
2022/05/23 09:18:23;;;;;;;1.23;0.70;;;;;;;;;;4968421;28;20055;-65
2022/05/23 09:20:54;;;;;;;0.80;0.80;;;;;;;;;;4969004;28;20455;-64
2022/05/23 09:23:29;;;;;;;1.88;1.08;;;;;;;;;;4968037;28;20061;-64
2022/05/23 09:25:56;;;;;;;1.55;0.90;;;;;;;;;;4970351;28;20461;-64
2022/05/23 09:28:21;;;;;;;1.33;0.82;;;;;;;;;;4969467;28;20408;-64
2022/05/23 09:30:59;;;;;;;0.50;0.50;;;;;;;;;;4969938;28;20467;-65
2022/05/23 09:33:26;;;;;;;0.93;0.65;;;;;;;;;;4970178;28;20521;-64
2022/05/23 09:36:10;;;;;;;1.20;0.90;;;;;;;;;;4969757;28;20363;-63
2022/05/23 09:38:56;;;;;;;0.93;0.60;;;;;;;;;;4968355;28;20538;-65
2022/05/23 09:47:44;;;;;;;1.55;0.95;;;;;;;;;;4984260;28;20388;-65
2022/05/23 09:49:46;;;;;;;1.45;0.80;;;;;;;;;;4969508;28;20348;-63
2022/05/23 09:52:39;;;;;;;1.15;0.85;;;;;;;;;;4969772;28;20328;-65
2022/05/23 09:55:06;;;;;;;0.90;0.70;;;;;;;;;;4980772;28;20566;-64
2022/05/23 09:57:39;;;;;;;1.98;1.10;;;;;;;;;;4971066;28;20324;-64
2022/05/23 10:00:23;;;;;;;0.90;0.60;;;;;;;;;;4989204;28;20512;-64
2022/05/23 10:02:57;;;;;;;0.75;0.50;;;;;;;;;;4988662;28;20458;-63
2022/05/23 10:05:40;;;;;;;0.63;0.52;;;;;;;;;;4987355;28;20367;-65
2022/05/23 10:08:09;;;;;;;0.68;0.52;;;;;;;;;;4988694;28;20437;-64
2022/05/23 10:10:38;;;;;;;1.13;0.80;;;;;;;;;;4971119;28;20458;-63
2022/05/23 10:13:18;;;;;;;1.20;0.73;;;;;;;;;;4988589;28;20324;-64
2022/05/23 10:15:46;;;;;;;0.88;0.70;;;;;;;;;;4989291;28;20328;-64
2022/05/23 10:18:18;;;;;;;0.77;0.65;;;;;;;;;;4970943;28;20493;-63
2022/05/23 10:20:44;;;;;;;0.60;0.60;;;;;;;;;;4988886;28;20033;-64
2022/05/23 10:23:19;;;;;;;1.05;0.68;;;;;;;;;;4971393;28;20021;-64
2022/05/23 10:25:56;;;;;;;1.58;0.80;;;;;;;;;;4988851;28;20441;-66
2022/05/23 10:28:30;;;;;;;1.35;0.70;;;;;;;;;;4990176;28;20450;-64
2022/05/23 10:31:15;;;;;;;1.08;0.60;;;;;;;;;;4988895;28;20469;-64
2022/05/23 10:33:43;;;;;;;1.23;0.80;;;;;;;;;;4970759;28;20529;-64
2022/05/23 10:36:14;;;;;;;0.88;0.60;;;;;;;;;;4987033;28;20382;-64
2022/05/23 10:44:50;;;;;;;1.10;0.70;;;;;;;;;;4958747;28;20355;-64
2022/05/23 10:48:12;;;;;;;0.73;0.70;;;;;;;;;;4992556;28;20362;-64
2022/05/23 10:50:44;;;;;;;1.00;0.70;;;;;;;;;;4912074;28;20547;-64
2022/05/23 10:53:37;;;;;;;0.77;0.50;;;;;;;;;;4911799;28;20346;-64
2022/05/23 10:56:27;;;;;;;0.60;0.55;;;;;;;;;;4956223;28;20436;-64
2022/05/23 10:59:07;;;;;;;0.68;0.55;;;;;;;;;;4973629;28;20444;-64
2022/05/23 11:01:55;;;;;;;1.10;0.90;;;;;;;;;;4972311;28;20507;-63
2022/05/23 11:04:43;;;;;;;0.90;0.57;;;;;;;;;;4970978;28;20029;-64
2022/05/23 11:07:26;;;;;;;0.50;0.50;;;;;;;;;;4972572;28;20056;-64
2022/05/23 11:10:07;;;;;;;0.90;0.70;;;;;;;;;;4973341;28;20474;-63
2022/05/23 11:12:51;;;;;;;0.85;0.70;;;;;;;;;;4973337;28;20503;-65
2022/05/23 11:15:26;;;;;;;1.60;0.95;;;;;;;;;;4970571;28;20328;-63
2022/05/23 11:18:01;;;;;;;0.73;0.60;;;;;;;;;;4973441;28;20378;-64
2022/05/23 11:20:39;;;;;;;2.67;0.95;;;;;;;;;;4970646;28;20479;-64
2022/05/23 11:23:23;;;;;;;1.10;0.80;;;;;;;;;;4972193;28;20029;-66
2022/05/23 11:25:53;;;;;;;4.45;0.70;;;;;;;;;;4972270;28;20463;-65
2022/05/23 11:34:28;;;;;;;1.40;0.77;;;;;;;;;;4973087;28;20470;-63
2022/05/23 11:39:56;;;;;;;0.60;0.60;;;;;;;;;;4970947;28;20038;-65
2022/05/23 11:42:24;;;;;;;4.03;0.75;;;;;;;;;;4972233;28;20471;-64
2022/05/23 11:44:49;;;;;;;3.67;0.50;;;;;;;;;;4972030;28;20359;-64
2022/05/23 11:47:25;;;;;;;0.93;0.63;;;;;;;;;;4971387;28;20614;-65
2022/05/23 11:49:59;;;;;;;0.82;0.82;;;;;;;;;;4971179;28;20526;-63
2022/05/23 11:52:31;;;;;;;0.85;0.60;;;;;;;;;;4972175;28;20461;-64
2022/05/23 11:54:57;;;;;;;0.77;0.65;;;;;;;;;;4969920;28;20415;-65
2022/05/23 11:57:40;;;;;;;0.60;0.60;;;;;;;;;;4970453;28;20108;-64
2022/05/23 12:00:33;;;;;;;0.70;0.68;;;;;;;;;;4971482;28;20432;-65
2022/05/23 12:03:11;;;;;;;0.90;0.60;;;;;;;;;;4971205;28;20038;-65
2022/05/23 12:05:37;;;;;;;;;;;;;;;;;;4972542;28;20581;-64
2022/05/23 12:08:26;;;;;;;1.27;0.65;;;;;;;;;;4971632;28;20323;-63
2022/05/23 12:10:58;;;;;;;0.60;0.50;;;;;;;;;;4971443;28;20368;-64
2022/05/23 12:13:33;;;;;;;1.17;0.63;;;;;;;;;;4971337;28;20344;-64
2022/05/23 12:16:20;;;;;;;1.17;0.68;;;;;;;;;;4971588;28;20398;-66
2022/05/23 12:18:48;;;;;;;0.65;0.40;;;;;;;;;;4971243;28;20367;-64
2022/05/23 12:21:34;;;;;;;0.73;0.73;;;;;;;;;;4971789;28;20335;-64
2022/05/23 12:24:23;;;;;;;0.38;0.38;;;;;;;;;;4973862;28;20401;-64
2022/05/23 12:26:52;;;;;;;0.85;0.50;;;;;;;;;;4970622;28;20450;-64
2022/05/23 12:29:30;;;;;;;0.43;0.40;;;;;;;;;;4969621;28;20440;-64
2022/05/23 12:32:05;;;;;;;0.90;0.57;;;;;;;;;;4970509;28;20454;-65
2022/05/23 12:34:35;;;;;;;2.80;0.50;;;;;;;;;;4971121;28;20491;-63
2022/05/23 12:37:01;;;;;;;0.40;0.40;;;;;;;;;;4969908;28;21175;-64
2022/05/23 12:39:45;;;;;;;0.65;0.35;;;;;;;;;;4970481;28;20029;-64
2022/05/23 12:42:28;;;;;;;0.52;0.52;;;;;;;;;;4970849;28;20033;-64
2022/05/23 12:45:19;;;;;;;1.00;0.57;;;;;;;;;;4970334;28;20438;-64
2022/05/23 12:48:13;;;;;;;0.55;0.55;;;;;;;;;;4969158;28;20455;-64
2022/05/23 12:51:17;;;;;;;0.85;0.55;;;;;;;;;;4970313;28;20392;-65
2022/05/23 12:54:21;;;;;;;2.05;0.60;;;;;;;;;;4958405;28;20359;-64
2022/05/23 12:57:01;;;;;;;0.93;0.63;;;;;;;;;;4950844;28;20045;-64
2022/05/23 12:59:36;;;;;;;1.20;0.82;;;;;;;;;;4950698;28;20317;-64
2022/05/23 13:02:06;;;;;;;0.55;0.52;;;;;;;;;;4950062;28;20400;-64
2022/05/23 13:04:47;;;;;;;1.30;0.52;;;;;;;;;;4949456;28;20340;-64
2022/05/23 13:07:18;;;;;;;1.00;0.40;;;;;;;;;;4949177;28;20360;-64
2022/05/23 13:09:45;;;;;;;0.70;0.60;;;;;;;;;;4949933;28;20025;-65
2022/05/23 13:12:20;;;;;;;0.60;0.60;;;;;;;;;;4948941;28;20038;-64
2022/05/23 13:14:54;;;;;;;0.90;0.50;;;;;;;;;;4948989;28;20349;-64
2022/05/23 13:17:35;;;;;;;0.52;0.50;;;;;;;;;;4950921;28;20080;-64
2022/05/23 13:22:44;;;;;;;0.82;0.40;;;;;;;;;;4951860;28;20448;-64
2022/05/23 13:25:10;;;;;;;0.60;0.55;;;;;;;;;;4948877;28;20456;-64
2022/05/23 13:27:46;;;;;;;0.93;0.50;;;;;;;;;;4950679;28;20326;-64
2022/05/23 13:30:17;;;;;;;0.50;0.50;;;;;;;;;;4948733;28;20437;-65
2022/05/23 13:32:43;;;;;;;3.97;0.68;;;;;;;;;;4950421;28;20399;-64
2022/05/23 13:35:20;;;;;;;1.13;0.60;;;;;;;;;;4948642;28;20372;-64
2022/05/23 13:37:45;;;;;;;1.58;0.70;;;;;;;;;;4950182;28;20460;-66
2022/05/23 13:40:14;;;;;;;1.13;0.45;;;;;;;;;;4948839;28;20459;-64
2022/05/23 13:42:39;;;;;;;0.98;0.60;;;;;;;;;;4949960;28;20363;-65
2022/05/23 13:45:13;;;;;;;0.90;0.60;;;;;;;;;;4950214;28;20026;-63
2022/05/23 13:47:56;;;;;;;0.50;0.50;;;;;;;;;;4950040;28;20033;-64
2022/05/23 13:50:38;;;;;;;0.82;0.55;;;;;;;;;;4951708;28;20298;-64
2022/05/23 13:53:07;;;;;;;0.82;0.52;;;;;;;;;;4948321;28;20423;-64
2022/05/23 13:55:43;;;;;;;1.35;0.50;;;;;;;;;;4962650;28;20502;-64
2022/05/23 13:58:14;;;;;;;1.08;0.57;;;;;;;;;;4968760;28;20025;-64
2022/05/23 14:00:43;;;;;;;0.75;0.55;;;;;;;;;;4967962;28;20470;-63
2022/05/23 14:03:34;;;;;;;0.43;0.40;;;;;;;;;;4968095;28;20371;-65
2022/05/23 14:06:10;;;;;;;2.05;0.80;;;;;;;;;;4964508;28;20466;-64
2022/05/23 14:08:40;;;;;;;2.40;0.57;;;;;;;;;;4968072;28;20351;-64
2022/05/23 14:11:18;;;;;;;0.55;0.55;;;;;;;;;;4968109;28;20580;-65
2022/05/23 14:13:44;;;;;;;0.98;0.68;;;;;;;;;;4971470;28;20096;-65
2022/05/23 14:16:14;;;;;;;1.00;0.43;;;;;;;;;;4975859;28;20112;-64
2022/05/23 14:18:39;;;;;;;0.70;0.60;;;;;;;;;;4974107;28;20431;-64
2022/05/23 14:21:05;;;;;;;0.77;0.70;;;;;;;;;;4975030;28;20448;-65
2022/05/23 14:23:33;;;;;;;0.60;0.60;;;;;;;;;;4975519;28;20467;-63
2022/05/23 14:25:58;;;;;;;0.60;0.57;;;;;;;;;;4976458;28;20463;-65
2022/05/23 14:28:25;;;;;;;0.90;0.68;;;;;;;;;;4975486;28;20462;-64
2022/05/23 14:30:53;;;;;;;1.55;0.90;;;;;;;;;;4974249;28;20457;-64
2022/05/23 14:33:24;;;;;;;3.83;1.40;;;;;;;;;;4975287;28;20367;-65
2022/05/23 14:35:51;;;;;;;2.83;2.00;;;;;;;;;;4974011;28;20395;-66
2022/05/23 14:38:35;;;;;;;2.83;1.58;;;;;;;;;;4977318;28;20412;-64
2022/05/23 14:41:26;;;;;;;2.22;1.80;;;;;;;;;;4976059;28;20525;-65
2022/05/23 14:44:05;;;;;;;2.90;1.83;;;;;;;;;;4975289;28;20336;-63
2022/05/23 14:46:39;;;;;;;2.42;1.70;;;;;;;;;;4976262;28;20052;-65
2022/05/23 14:49:11;;;;;;;3.83;2.00;;;;;;;;;;4974745;28;20404;-65
2022/05/23 14:51:41;;;;;;;2.58;1.55;;;;;;;;;;4976754;28;20348;-65
2022/05/23 14:56:55;;;;;;;4.28;1.48;;;;;;;;;;4995136;28;20485;-64
2022/05/23 15:02:19;;;;;;;2.20;1.38;;;;;;;;;;4980061;28;20501;-65
2022/05/23 15:04:46;;;;;;;3.30;1.30;;;;;;;;;;4994861;28;20454;-64
2022/05/23 15:07:12;;;;;;;1.63;1.10;;;;;;;;;;4995248;28;20331;-64
2022/05/23 15:09:38;;;;;;;3.90;1.20;;;;;;;;;;4994941;28;20118;-64
2022/05/23 15:12:13;;;;;;;2.83;1.33;;;;;;;;;;4994710;28;20061;-64
2022/05/23 15:14:39;;;;;;;2.45;1.20;;;;;;;;;;4976867;28;20423;-65
2022/05/23 15:17:13;;;;;;;2.03;1.38;;;;;;;;;;4996281;28;20480;-64
2022/05/23 15:19:38;;;;;;;1.83;1.00;;;;;;;;;;4995320;28;20312;-65
2022/05/23 15:22:05;;;;;;;1.50;0.90;;;;;;;;;;4994681;28;20346;-65
2022/05/23 15:24:30;;;;;;;1.70;1.00;;;;;;;;;;4995562;28;20554;-64
2022/05/23 15:26:56;;;;;;;1.73;1.02;;;;;;;;;;4990827;28;20509;-65
2022/05/23 15:29:23;;;;;;;1.25;1.00;;;;;;;;;;4991978;28;20419;-65
2022/05/23 15:31:51;;;;;;;1.85;1.17;;;;;;;;;;4992095;28;20167;-65
2022/05/23 15:34:17;;;;;;;1.85;0.85;;;;;;;;;;4974199;28;20451;-63
2022/05/23 15:36:43;;;;;;;1.65;1.20;;;;;;;;;;4991550;28;20431;-64
2022/05/23 15:39:09;;;;;;;3.17;1.30;;;;;;;;;;4991275;28;20371;-64
2022/05/23 15:44:13;;;;;;;1.42;1.00;;;;;;;;;;5074897;22;21963;-64
2022/05/23 15:46:40;;;;;;;1.52;0.80;;;;;;;;;;4913986;28;20340;-64
2022/05/23 15:49:06;;;;;;;1.70;1.20;;;;;;;;;;4913377;28;20057;-64
2022/05/23 15:51:31;;;;;;;1.17;1.05;;;;;;;;;;4913650;28;20417;-65
2022/05/23 15:53:56;;;;;;;1.27;1.00;;;;;;;;;;4913374;28;20454;-64
2022/05/23 15:56:22;;;;;;;1.38;0.90;;;;;;;;;;4913256;28;20521;-65
2022/05/23 15:58:47;;;;;;;1.40;0.95;;;;;;;;;;4914245;28;20516;-64
2022/05/23 16:01:14;;;;;;;1.35;0.90;;;;;;;;;;4896069;28;20057;-64
2022/05/23 16:03:40;;;;;;;1.77;1.00;;;;;;;;;;4914841;28;20325;-65
2022/05/23 16:06:06;;;;;;;2.38;0.93;;;;;;;;;;4912914;28;20353;-65
2022/05/23 16:08:31;;;;;;;1.75;1.20;;;;;;;;;;4915045;28;20442;-64
2022/05/23 16:11:07;;;;;;;2.88;0.85;;;;;;;;;;4912808;28;20368;-64